sensor_id;sensor_type;location;lat;lon;timestamp;P1;durP1;ratioP1;P2;durP2;ratioP2
76656;SDS011;65576;47.714;9.414;2023-08-31T00:01:48;2.55;;;2.10;;
76656;SDS011;65576;47.714;9.414;2023-08-31T00:04:14;2.00;;;1.70;;
76656;SDS011;65576;47.714;9.414;2023-08-31T00:06:42;2.63;;;2.00;;
76656;SDS011;65576;47.714;9.414;2023-08-31T00:09:09;2.13;;;1.38;;
76656;SDS011;65576;47.714;9.414;2023-08-31T00:11:35;3.05;;;2.08;;
76656;SDS011;65576;47.714;9.414;2023-08-31T00:14:01;4.57;;;1.77;;
76656;SDS011;65576;47.714;9.414;2023-08-31T00:16:26;3.42;;;2.67;;
76656;SDS011;65576;47.714;9.414;2023-08-31T00:18:52;2.85;;;1.95;;
76656;SDS011;65576;47.714;9.414;2023-08-31T00:21:18;2.15;;;1.95;;
76656;SDS011;65576;47.714;9.414;2023-08-31T00:23:43;3.80;;;1.73;;
76656;SDS011;65576;47.714;9.414;2023-08-31T00:26:08;2.33;;;2.05;;
76656;SDS011;65576;47.714;9.414;2023-08-31T00:28:34;2.20;;;1.95;;
76656;SDS011;65576;47.714;9.414;2023-08-31T00:31:02;4.43;;;2.05;;
76656;SDS011;65576;47.714;9.414;2023-08-31T00:33:28;2.45;;;1.80;;
76656;SDS011;65576;47.714;9.414;2023-08-31T00:35:54;2.17;;;1.90;;
76656;SDS011;65576;47.714;9.414;2023-08-31T00:38:21;1.92;;;1.73;;
76656;SDS011;65576;47.714;9.414;2023-08-31T00:40:46;2.75;;;2.10;;
76656;SDS011;65576;47.714;9.414;2023-08-31T00:43:12;3.35;;;2.03;;
76656;SDS011;65576;47.714;9.414;2023-08-31T00:45:40;2.05;;;1.70;;
76656;SDS011;65576;47.714;9.414;2023-08-31T00:48:05;2.60;;;1.95;;
76656;SDS011;65576;47.714;9.414;2023-08-31T00:50:31;2.33;;;2.05;;
76656;SDS011;65576;47.714;9.414;2023-08-31T00:52:56;9.85;;;2.33;;
76656;SDS011;65576;47.714;9.414;2023-08-31T00:55:22;16.77;;;2.50;;
76656;SDS011;65576;47.714;9.414;2023-08-31T00:57:48;2.35;;;2.05;;
76656;SDS011;65576;47.714;9.414;2023-08-31T01:00:13;2.92;;;2.03;;
76656;SDS011;65576;47.714;9.414;2023-08-31T01:08:43;1.98;;;1.52;;
76656;SDS011;65576;47.714;9.414;2023-08-31T01:13:44;2.65;;;1.65;;
76656;SDS011;65576;47.714;9.414;2023-08-31T01:16:15;2.50;;;1.95;;
76656;SDS011;65576;47.714;9.414;2023-08-31T01:18:41;9.93;;;2.55;;
76656;SDS011;65576;47.714;9.414;2023-08-31T01:24:02;4.13;;;2.45;;
76656;SDS011;65576;47.714;9.414;2023-08-31T01:26:29;2.67;;;2.17;;
76656;SDS011;65576;47.714;9.414;2023-08-31T01:28:54;2.08;;;1.70;;
76656;SDS011;65576;47.714;9.414;2023-08-31T01:31:20;2.38;;;2.15;;
76656;SDS011;65576;47.714;9.414;2023-08-31T01:33:46;2.80;;;2.17;;
76656;SDS011;65576;47.714;9.414;2023-08-31T01:36:30;2.47;;;2.15;;
76656;SDS011;65576;47.714;9.414;2023-08-31T01:39:03;3.13;;;2.25;;
76656;SDS011;65576;47.714;9.414;2023-08-31T01:41:33;5.47;;;2.00;;
76656;SDS011;65576;47.714;9.414;2023-08-31T01:44:00;9.90;;;2.03;;
76656;SDS011;65576;47.714;9.414;2023-08-31T01:46:26;3.65;;;2.00;;
76656;SDS011;65576;47.714;9.414;2023-08-31T01:48:52;3.05;;;1.90;;
76656;SDS011;65576;47.714;9.414;2023-08-31T01:51:17;1.83;;;1.65;;
76656;SDS011;65576;47.714;9.414;2023-08-31T01:53:43;3.65;;;2.30;;
76656;SDS011;65576;47.714;9.414;2023-08-31T01:56:09;5.30;;;2.53;;
76656;SDS011;65576;47.714;9.414;2023-08-31T01:58:35;2.50;;;2.00;;
76656;SDS011;65576;47.714;9.414;2023-08-31T02:01:00;2.03;;;1.77;;
76656;SDS011;65576;47.714;9.414;2023-08-31T02:03:25;2.72;;;2.30;;
76656;SDS011;65576;47.714;9.414;2023-08-31T02:05:50;3.22;;;1.95;;
76656;SDS011;65576;47.714;9.414;2023-08-31T02:08:16;3.03;;;2.05;;
76656;SDS011;65576;47.714;9.414;2023-08-31T02:10:43;2.90;;;1.98;;
76656;SDS011;65576;47.714;9.414;2023-08-31T02:13:09;3.72;;;2.40;;
76656;SDS011;65576;47.714;9.414;2023-08-31T02:15:37;2.80;;;2.33;;
76656;SDS011;65576;47.714;9.414;2023-08-31T02:18:03;2.85;;;2.28;;
76656;SDS011;65576;47.714;9.414;2023-08-31T02:20:28;4.57;;;2.03;;
76656;SDS011;65576;47.714;9.414;2023-08-31T02:22:55;6.45;;;2.20;;
76656;SDS011;65576;47.714;9.414;2023-08-31T02:25:20;2.80;;;2.30;;
76656;SDS011;65576;47.714;9.414;2023-08-31T02:27:46;2.88;;;2.25;;
76656;SDS011;65576;47.714;9.414;2023-08-31T02:30:11;1.75;;;1.63;;
76656;SDS011;65576;47.714;9.414;2023-08-31T02:32:37;4.90;;;2.20;;
76656;SDS011;65576;47.714;9.414;2023-08-31T02:35:02;4.15;;;2.33;;
76656;SDS011;65576;47.714;9.414;2023-08-31T02:37:27;2.35;;;2.15;;
76656;SDS011;65576;47.714;9.414;2023-08-31T02:39:53;3.92;;;2.58;;
76656;SDS011;65576;47.714;9.414;2023-08-31T02:42:18;2.28;;;1.80;;
76656;SDS011;65576;47.714;9.414;2023-08-31T02:44:43;2.28;;;2.08;;
76656;SDS011;65576;47.714;9.414;2023-08-31T02:47:09;5.32;;;2.53;;
76656;SDS011;65576;47.714;9.414;2023-08-31T02:49:34;6.70;;;2.83;;
76656;SDS011;65576;47.714;9.414;2023-08-31T02:51:59;2.92;;;1.75;;
76656;SDS011;65576;47.714;9.414;2023-08-31T02:54:25;2.72;;;2.00;;
76656;SDS011;65576;47.714;9.414;2023-08-31T02:56:50;3.33;;;2.30;;
76656;SDS011;65576;47.714;9.414;2023-08-31T02:59:15;3.08;;;2.08;;
76656;SDS011;65576;47.714;9.414;2023-08-31T03:01:42;3.25;;;2.05;;
76656;SDS011;65576;47.714;9.414;2023-08-31T03:04:11;3.15;;;2.30;;
76656;SDS011;65576;47.714;9.414;2023-08-31T03:06:36;3.60;;;2.40;;
76656;SDS011;65576;47.714;9.414;2023-08-31T03:09:02;6.18;;;2.42;;
76656;SDS011;65576;47.714;9.414;2023-08-31T03:11:27;3.65;;;2.20;;
76656;SDS011;65576;47.714;9.414;2023-08-31T03:13:52;3.53;;;2.17;;
76656;SDS011;65576;47.714;9.414;2023-08-31T03:16:18;3.50;;;2.55;;
76656;SDS011;65576;47.714;9.414;2023-08-31T03:18:43;3.03;;;1.80;;
76656;SDS011;65576;47.714;9.414;2023-08-31T03:21:08;3.03;;;2.53;;
76656;SDS011;65576;47.714;9.414;2023-08-31T03:23:34;3.33;;;2.25;;
76656;SDS011;65576;47.714;9.414;2023-08-31T03:25:59;3.60;;;2.63;;
76656;SDS011;65576;47.714;9.414;2023-08-31T03:28:25;2.55;;;2.35;;
76656;SDS011;65576;47.714;9.414;2023-08-31T03:30:56;4.45;;;2.22;;
76656;SDS011;65576;47.714;9.414;2023-08-31T03:33:22;5.10;;;2.75;;
76656;SDS011;65576;47.714;9.414;2023-08-31T03:35:47;3.03;;;2.20;;
76656;SDS011;65576;47.714;9.414;2023-08-31T03:38:13;3.78;;;2.67;;
76656;SDS011;65576;47.714;9.414;2023-08-31T03:40:38;2.92;;;2.30;;
76656;SDS011;65576;47.714;9.414;2023-08-31T03:43:03;2.38;;;2.15;;
76656;SDS011;65576;47.714;9.414;2023-08-31T03:45:29;2.10;;;1.90;;
76656;SDS011;65576;47.714;9.414;2023-08-31T03:47:54;3.40;;;1.90;;
76656;SDS011;65576;47.714;9.414;2023-08-31T03:50:19;1.83;;;1.60;;
76656;SDS011;65576;47.714;9.414;2023-08-31T03:52:45;2.88;;;2.00;;
76656;SDS011;65576;47.714;9.414;2023-08-31T03:55:10;1.50;;;1.40;;
76656;SDS011;65576;47.714;9.414;2023-08-31T03:57:35;2.45;;;1.48;;
76656;SDS011;65576;47.714;9.414;2023-08-31T04:00:01;2.80;;;2.15;;
76656;SDS011;65576;47.714;9.414;2023-08-31T04:02:29;2.08;;;1.80;;
76656;SDS011;65576;47.714;9.414;2023-08-31T04:04:56;4.80;;;2.10;;
76656;SDS011;65576;47.714;9.414;2023-08-31T04:07:22;2.65;;;1.70;;
76656;SDS011;65576;47.714;9.414;2023-08-31T04:09:47;2.47;;;1.92;;
76656;SDS011;65576;47.714;9.414;2023-08-31T04:12:13;2.50;;;2.10;;
76656;SDS011;65576;47.714;9.414;2023-08-31T04:14:38;3.78;;;2.40;;
76656;SDS011;65576;47.714;9.414;2023-08-31T04:17:03;2.95;;;1.73;;
76656;SDS011;65576;47.714;9.414;2023-08-31T04:19:30;2.42;;;1.85;;
76656;SDS011;65576;47.714;9.414;2023-08-31T04:21:55;3.20;;;1.80;;
76656;SDS011;65576;47.714;9.414;2023-08-31T04:24:20;2.58;;;1.88;;
76656;SDS011;65576;47.714;9.414;2023-08-31T04:26:46;1.88;;;1.45;;
76656;SDS011;65576;47.714;9.414;2023-08-31T04:29:13;2.58;;;1.58;;
76656;SDS011;65576;47.714;9.414;2023-08-31T04:31:38;1.70;;;1.30;;
76656;SDS011;65576;47.714;9.414;2023-08-31T04:34:04;2.97;;;2.10;;
76656;SDS011;65576;47.714;9.414;2023-08-31T04:36:29;1.77;;;1.52;;
76656;SDS011;65576;47.714;9.414;2023-08-31T04:38:55;3.10;;;1.70;;
76656;SDS011;65576;47.714;9.414;2023-08-31T04:41:20;1.85;;;1.73;;
76656;SDS011;65576;47.714;9.414;2023-08-31T04:43:45;2.80;;;1.67;;
76656;SDS011;65576;47.714;9.414;2023-08-31T04:46:14;1.73;;;1.40;;
76656;SDS011;65576;47.714;9.414;2023-08-31T04:48:39;2.22;;;1.38;;
76656;SDS011;65576;47.714;9.414;2023-08-31T04:51:05;4.65;;;1.50;;
76656;SDS011;65576;47.714;9.414;2023-08-31T04:53:30;1.50;;;1.40;;
76656;SDS011;65576;47.714;9.414;2023-08-31T04:55:56;1.85;;;1.50;;
76656;SDS011;65576;47.714;9.414;2023-08-31T04:58:21;1.80;;;1.45;;
76656;SDS011;65576;47.714;9.414;2023-08-31T05:00:47;1.98;;;1.15;;
76656;SDS011;65576;47.714;9.414;2023-08-31T05:03:12;1.75;;;1.27;;
76656;SDS011;65576;47.714;9.414;2023-08-31T05:05:38;2.55;;;1.52;;
76656;SDS011;65576;47.714;9.414;2023-08-31T05:08:03;2.80;;;1.80;;
76656;SDS011;65576;47.714;9.414;2023-08-31T05:10:29;6.10;;;1.85;;
76656;SDS011;65576;47.714;9.414;2023-08-31T05:12:55;2.25;;;1.90;;
76656;SDS011;65576;47.714;9.414;2023-08-31T05:15:20;3.42;;;1.90;;
76656;SDS011;65576;47.714;9.414;2023-08-31T05:17:46;2.72;;;2.00;;
76656;SDS011;65576;47.714;9.414;2023-08-31T05:20:12;2.05;;;1.80;;
76656;SDS011;65576;47.714;9.414;2023-08-31T05:22:38;2.40;;;1.83;;
76656;SDS011;65576;47.714;9.414;2023-08-31T05:25:03;2.38;;;1.70;;
76656;SDS011;65576;47.714;9.414;2023-08-31T05:27:29;2.15;;;1.52;;
76656;SDS011;65576;47.714;9.414;2023-08-31T05:29:54;5.00;;;2.25;;
76656;SDS011;65576;47.714;9.414;2023-08-31T05:32:20;4.70;;;1.90;;
76656;SDS011;65576;47.714;9.414;2023-08-31T05:34:45;2.35;;;1.65;;
76656;SDS011;65576;47.714;9.414;2023-08-31T05:37:10;5.75;;;1.83;;
76656;SDS011;65576;47.714;9.414;2023-08-31T05:39:36;2.00;;;1.33;;
76656;SDS011;65576;47.714;9.414;2023-08-31T05:42:01;1.70;;;1.60;;
76656;SDS011;65576;47.714;9.414;2023-08-31T05:44:26;2.83;;;1.90;;
76656;SDS011;65576;47.714;9.414;2023-08-31T05:46:52;2.53;;;1.73;;
76656;SDS011;65576;47.714;9.414;2023-08-31T05:49:17;2.08;;;1.50;;
76656;SDS011;65576;47.714;9.414;2023-08-31T05:51:42;2.55;;;1.58;;
76656;SDS011;65576;47.714;9.414;2023-08-31T05:54:08;1.60;;;1.40;;
76656;SDS011;65576;47.714;9.414;2023-08-31T05:56:38;2.30;;;1.60;;
76656;SDS011;65576;47.714;9.414;2023-08-31T05:59:04;2.47;;;2.03;;
76656;SDS011;65576;47.714;9.414;2023-08-31T06:01:30;2.03;;;1.27;;
76656;SDS011;65576;47.714;9.414;2023-08-31T06:03:56;2.28;;;1.50;;
76656;SDS011;65576;47.714;9.414;2023-08-31T06:06:21;3.78;;;1.60;;
76656;SDS011;65576;47.714;9.414;2023-08-31T06:08:46;1.77;;;1.23;;
76656;SDS011;65576;47.714;9.414;2023-08-31T06:11:13;1.40;;;1.30;;
76656;SDS011;65576;47.714;9.414;2023-08-31T06:13:38;1.00;;;0.90;;
76656;SDS011;65576;47.714;9.414;2023-08-31T06:16:03;1.23;;;1.10;;
76656;SDS011;65576;47.714;9.414;2023-08-31T06:18:29;0.98;;;0.90;;
76656;SDS011;65576;47.714;9.414;2023-08-31T06:20:54;1.33;;;0.90;;
76656;SDS011;65576;47.714;9.414;2023-08-31T06:23:19;1.73;;;1.25;;
76656;SDS011;65576;47.714;9.414;2023-08-31T06:25:45;2.97;;;0.98;;
76656;SDS011;65576;47.714;9.414;2023-08-31T06:28:13;1.27;;;1.17;;
76656;SDS011;65576;47.714;9.414;2023-08-31T06:30:38;2.55;;;1.27;;
76656;SDS011;65576;47.714;9.414;2023-08-31T06:33:04;0.80;;;0.80;;
76656;SDS011;65576;47.714;9.414;2023-08-31T06:35:29;1.58;;;1.00;;
76656;SDS011;65576;47.714;9.414;2023-08-31T06:37:56;1.73;;;1.13;;
76656;SDS011;65576;47.714;9.414;2023-08-31T06:40:21;2.92;;;1.48;;
76656;SDS011;65576;47.714;9.414;2023-08-31T06:42:46;1.20;;;0.95;;
76656;SDS011;65576;47.714;9.414;2023-08-31T06:45:12;2.50;;;0.98;;
76656;SDS011;65576;47.714;9.414;2023-08-31T06:47:37;1.38;;;0.75;;
76656;SDS011;65576;47.714;9.414;2023-08-31T06:50:02;1.63;;;1.00;;
76656;SDS011;65576;47.714;9.414;2023-08-31T06:52:28;8.00;;;0.98;;
76656;SDS011;65576;47.714;9.414;2023-08-31T06:54:54;3.20;;;1.38;;
76656;SDS011;65576;47.714;9.414;2023-08-31T06:57:21;1.02;;;0.90;;
76656;SDS011;65576;47.714;9.414;2023-08-31T06:59:47;2.53;;;1.25;;
76656;SDS011;65576;47.714;9.414;2023-08-31T07:02:13;1.80;;;1.08;;
76656;SDS011;65576;47.714;9.414;2023-08-31T07:04:38;1.77;;;0.90;;
76656;SDS011;65576;47.714;9.414;2023-08-31T07:07:03;1.45;;;1.00;;
76656;SDS011;65576;47.714;9.414;2023-08-31T07:09:30;1.42;;;0.85;;
76656;SDS011;65576;47.714;9.414;2023-08-31T07:11:55;2.03;;;1.20;;
76656;SDS011;65576;47.714;9.414;2023-08-31T07:14:20;1.67;;;0.80;;
76656;SDS011;65576;47.714;9.414;2023-08-31T07:16:46;1.83;;;1.30;;
76656;SDS011;65576;47.714;9.414;2023-08-31T07:19:11;5.55;;;1.10;;
76656;SDS011;65576;47.714;9.414;2023-08-31T07:21:36;2.65;;;1.40;;
76656;SDS011;65576;47.714;9.414;2023-08-31T07:24:02;3.63;;;1.52;;
76656;SDS011;65576;47.714;9.414;2023-08-31T07:26:27;0.73;;;0.70;;
76656;SDS011;65576;47.714;9.414;2023-08-31T07:28:53;1.33;;;0.82;;
76656;SDS011;65576;47.714;9.414;2023-08-31T07:31:19;2.45;;;1.40;;
76656;SDS011;65576;47.714;9.414;2023-08-31T07:33:44;12.43;;;1.35;;
76656;SDS011;65576;47.714;9.414;2023-08-31T07:36:10;1.75;;;0.88;;
76656;SDS011;65576;47.714;9.414;2023-08-31T07:38:35;1.08;;;0.90;;
76656;SDS011;65576;47.714;9.414;2023-08-31T07:41:01;4.00;;;1.20;;
76656;SDS011;65576;47.714;9.414;2023-08-31T07:43:26;1.73;;;1.00;;
76656;SDS011;65576;47.714;9.414;2023-08-31T07:45:52;0.90;;;0.80;;
76656;SDS011;65576;47.714;9.414;2023-08-31T07:48:17;0.90;;;0.85;;
76656;SDS011;65576;47.714;9.414;2023-08-31T07:50:43;2.50;;;1.15;;
76656;SDS011;65576;47.714;9.414;2023-08-31T07:53:08;1.98;;;1.13;;
76656;SDS011;65576;47.714;9.414;2023-08-31T07:55:33;1.30;;;1.00;;
76656;SDS011;65576;47.714;9.414;2023-08-31T07:58:00;0.60;;;0.60;;
76656;SDS011;65576;47.714;9.414;2023-08-31T08:00:26;2.55;;;0.93;;
76656;SDS011;65576;47.714;9.414;2023-08-31T08:02:51;0.80;;;0.80;;
76656;SDS011;65576;47.714;9.414;2023-08-31T08:05:16;3.03;;;1.02;;
76656;SDS011;65576;47.714;9.414;2023-08-31T08:07:42;1.95;;;1.00;;
76656;SDS011;65576;47.714;9.414;2023-08-31T08:10:08;2.72;;;1.15;;
76656;SDS011;65576;47.714;9.414;2023-08-31T08:12:40;2.72;;;1.00;;
76656;SDS011;65576;47.714;9.414;2023-08-31T08:15:08;1.60;;;0.82;;
76656;SDS011;65576;47.714;9.414;2023-08-31T08:17:34;3.50;;;1.10;;
76656;SDS011;65576;47.714;9.414;2023-08-31T08:19:59;2.38;;;0.93;;
76656;SDS011;65576;47.714;9.414;2023-08-31T08:22:24;0.70;;;0.70;;
76656;SDS011;65576;47.714;9.414;2023-08-31T08:24:50;1.52;;;1.00;;
76656;SDS011;65576;47.714;9.414;2023-08-31T08:27:15;2.17;;;1.15;;
76656;SDS011;65576;47.714;9.414;2023-08-31T08:29:42;0.60;;;0.60;;
76656;SDS011;65576;47.714;9.414;2023-08-31T08:32:08;2.13;;;1.08;;
76656;SDS011;65576;47.714;9.414;2023-08-31T08:34:33;0.80;;;0.80;;
76656;SDS011;65576;47.714;9.414;2023-08-31T08:36:59;6.25;;;1.27;;
76656;SDS011;65576;47.714;9.414;2023-08-31T08:39:24;0.95;;;0.77;;
76656;SDS011;65576;47.714;9.414;2023-08-31T08:41:49;3.30;;;0.98;;
76656;SDS011;65576;47.714;9.414;2023-08-31T08:44:16;2.28;;;0.95;;
76656;SDS011;65576;47.714;9.414;2023-08-31T08:46:43;2.47;;;1.30;;
76656;SDS011;65576;47.714;9.414;2023-08-31T08:49:08;2.10;;;1.00;;
76656;SDS011;65576;47.714;9.414;2023-08-31T08:51:35;0.77;;;0.60;;
76656;SDS011;65576;47.714;9.414;2023-08-31T08:54:00;1.05;;;0.57;;
76656;SDS011;65576;47.714;9.414;2023-08-31T08:56:26;1.23;;;0.90;;
76656;SDS011;65576;47.714;9.414;2023-08-31T08:58:52;2.88;;;1.10;;
76656;SDS011;65576;47.714;9.414;2023-08-31T09:01:17;1.33;;;0.88;;
76656;SDS011;65576;47.714;9.414;2023-08-31T09:03:47;1.05;;;0.98;;
76656;SDS011;65576;47.714;9.414;2023-08-31T09:06:13;1.08;;;0.77;;
76656;SDS011;65576;47.714;9.414;2023-08-31T09:08:38;3.58;;;1.23;;
76656;SDS011;65576;47.714;9.414;2023-08-31T09:11:06;3.30;;;1.10;;
76656;SDS011;65576;47.714;9.414;2023-08-31T09:13:31;1.63;;;1.00;;
76656;SDS011;65576;47.714;9.414;2023-08-31T09:15:58;1.88;;;1.08;;
76656;SDS011;65576;47.714;9.414;2023-08-31T09:20:49;1.85;;;0.98;;
76656;SDS011;65576;47.714;9.414;2023-08-31T09:23:14;2.85;;;1.40;;
76656;SDS011;65576;47.714;9.414;2023-08-31T09:25:41;2.05;;;1.05;;
76656;SDS011;65576;47.714;9.414;2023-08-31T09:28:12;2.45;;;1.02;;
76656;SDS011;65576;47.714;9.414;2023-08-31T09:30:38;2.67;;;1.10;;
76656;SDS011;65576;47.714;9.414;2023-08-31T09:33:05;1.08;;;0.98;;
76656;SDS011;65576;47.714;9.414;2023-08-31T09:35:31;1.63;;;0.90;;
76656;SDS011;65576;47.714;9.414;2023-08-31T09:37:57;4.18;;;0.98;;
76656;SDS011;65576;47.714;9.414;2023-08-31T09:40:23;4.35;;;1.02;;
76656;SDS011;65576;47.714;9.414;2023-08-31T09:42:51;1.23;;;0.93;;
76656;SDS011;65576;47.714;9.414;2023-08-31T09:45:17;1.27;;;0.90;;
76656;SDS011;65576;47.714;9.414;2023-08-31T09:47:43;4.45;;;0.93;;
76656;SDS011;65576;47.714;9.414;2023-08-31T09:50:09;0.85;;;0.77;;
76656;SDS011;65576;47.714;9.414;2023-08-31T09:52:35;4.07;;;0.93;;
76656;SDS011;65576;47.714;9.414;2023-08-31T09:55:01;1.10;;;1.00;;
76656;SDS011;65576;47.714;9.414;2023-08-31T09:57:28;2.55;;;1.30;;
76656;SDS011;65576;47.714;9.414;2023-08-31T09:59:54;1.48;;;1.05;;
76656;SDS011;65576;47.714;9.414;2023-08-31T10:02:19;3.08;;;0.90;;
76656;SDS011;65576;47.714;9.414;2023-08-31T10:04:44;2.47;;;0.98;;
76656;SDS011;65576;47.714;9.414;2023-08-31T10:07:10;0.98;;;0.75;;
76656;SDS011;65576;47.714;9.414;2023-08-31T10:09:36;2.55;;;1.23;;
76656;SDS011;65576;47.714;9.414;2023-08-31T10:12:04;0.85;;;0.70;;
76656;SDS011;65576;47.714;9.414;2023-08-31T10:14:29;4.45;;;1.05;;
76656;SDS011;65576;47.714;9.414;2023-08-31T10:16:55;10.15;;;1.23;;
76656;SDS011;65576;47.714;9.414;2023-08-31T10:19:21;3.28;;;0.80;;
76656;SDS011;65576;47.714;9.414;2023-08-31T10:21:46;1.42;;;1.00;;
76656;SDS011;65576;47.714;9.414;2023-08-31T10:24:11;2.35;;;1.20;;
76656;SDS011;65576;47.714;9.414;2023-08-31T10:26:37;1.88;;;0.77;;
76656;SDS011;65576;47.714;9.414;2023-08-31T10:29:02;2.72;;;1.30;;
76656;SDS011;65576;47.714;9.414;2023-08-31T10:31:29;1.58;;;1.35;;
76656;SDS011;65576;47.714;9.414;2023-08-31T10:33:57;1.70;;;0.95;;
76656;SDS011;65576;47.714;9.414;2023-08-31T10:36:40;1.85;;;0.75;;
76656;SDS011;65576;47.714;9.414;2023-08-31T10:41:38;2.33;;;1.00;;
76656;SDS011;65576;47.714;9.414;2023-08-31T10:46:52;2.45;;;1.17;;
76656;SDS011;65576;47.714;9.414;2023-08-31T10:49:19;8.00;;;1.58;;
76656;SDS011;65576;47.714;9.414;2023-08-31T10:54:27;1.73;;;1.10;;
76656;SDS011;65576;47.714;9.414;2023-08-31T11:02:27;0.90;;;0.80;;
76656;SDS011;65576;47.714;9.414;2023-08-31T11:07:49;1.90;;;0.75;;
76656;SDS011;65576;47.714;9.414;2023-08-31T11:10:24;2.58;;;1.02;;
76656;SDS011;65576;47.714;9.414;2023-08-31T11:12:52;3.58;;;1.00;;
76656;SDS011;65576;47.714;9.414;2023-08-31T11:15:20;4.35;;;1.10;;
76656;SDS011;65576;47.714;9.414;2023-08-31T11:17:48;2.55;;;1.00;;
76656;SDS011;65576;47.714;9.414;2023-08-31T11:20:18;3.25;;;1.13;;
76656;SDS011;65576;47.714;9.414;2023-08-31T11:22:48;1.88;;;0.95;;
76656;SDS011;65576;47.714;9.414;2023-08-31T11:25:15;2.73;;;1.17;;
76656;SDS011;65576;47.714;9.414;2023-08-31T11:27:41;4.68;;;0.80;;
76656;SDS011;65576;47.714;9.414;2023-08-31T11:30:13;4.35;;;1.33;;
76656;SDS011;65576;47.714;9.414;2023-08-31T11:32:45;1.25;;;0.98;;
76656;SDS011;65576;47.714;9.414;2023-08-31T11:35:15;1.23;;;0.85;;
76656;SDS011;65576;47.714;9.414;2023-08-31T11:37:42;0.93;;;0.82;;
76656;SDS011;65576;47.714;9.414;2023-08-31T11:40:09;2.13;;;1.15;;
76656;SDS011;65576;47.714;9.414;2023-08-31T11:42:35;2.60;;;1.27;;
76656;SDS011;65576;47.714;9.414;2023-08-31T11:45:00;0.80;;;0.80;;
76656;SDS011;65576;47.714;9.414;2023-08-31T11:47:26;2.72;;;1.10;;
76656;SDS011;65576;47.714;9.414;2023-08-31T11:49:51;1.05;;;0.90;;
76656;SDS011;65576;47.714;9.414;2023-08-31T11:52:17;3.40;;;1.27;;
76656;SDS011;65576;47.714;9.414;2023-08-31T11:54:43;0.88;;;0.80;;
76656;SDS011;65576;47.714;9.414;2023-08-31T11:57:09;4.18;;;1.25;;
76656;SDS011;65576;47.714;9.414;2023-08-31T11:59:35;2.08;;;1.25;;
76656;SDS011;65576;47.714;9.414;2023-08-31T12:02:01;2.28;;;1.17;;
76656;SDS011;65576;47.714;9.414;2023-08-31T12:04:27;1.42;;;1.10;;
76656;SDS011;65576;47.714;9.414;2023-08-31T12:06:53;2.47;;;1.00;;
76656;SDS011;65576;47.714;9.414;2023-08-31T12:09:27;0.90;;;0.85;;
76656;SDS011;65576;47.714;9.414;2023-08-31T12:11:53;2.63;;;0.95;;
76656;SDS011;65576;47.714;9.414;2023-08-31T12:14:25;4.47;;;1.17;;
76656;SDS011;65576;47.714;9.414;2023-08-31T12:16:51;2.05;;;0.90;;
76656;SDS011;65576;47.714;9.414;2023-08-31T12:19:17;2.00;;;1.00;;
76656;SDS011;65576;47.714;9.414;2023-08-31T12:21:43;1.75;;;1.20;;
76656;SDS011;65576;47.714;9.414;2023-08-31T12:24:10;1.08;;;0.90;;
76656;SDS011;65576;47.714;9.414;2023-08-31T12:26:35;3.15;;;1.30;;
76656;SDS011;65576;47.714;9.414;2023-08-31T12:29:01;1.15;;;0.90;;
76656;SDS011;65576;47.714;9.414;2023-08-31T12:31:29;3.50;;;1.15;;
76656;SDS011;65576;47.714;9.414;2023-08-31T12:33:54;4.22;;;1.30;;
76656;SDS011;65576;47.714;9.414;2023-08-31T12:36:20;1.95;;;1.20;;
76656;SDS011;65576;47.714;9.414;2023-08-31T12:38:45;3.40;;;1.33;;
76656;SDS011;65576;47.714;9.414;2023-08-31T12:41:11;3.80;;;1.10;;
76656;SDS011;65576;47.714;9.414;2023-08-31T12:43:36;1.52;;;1.10;;
76656;SDS011;65576;47.714;9.414;2023-08-31T12:46:02;1.13;;;0.90;;
76656;SDS011;65576;47.714;9.414;2023-08-31T12:48:31;1.58;;;1.08;;
76656;SDS011;65576;47.714;9.414;2023-08-31T12:50:57;5.78;;;1.67;;
76656;SDS011;65576;47.714;9.414;2023-08-31T12:53:22;5.95;;;1.20;;
76656;SDS011;65576;47.714;9.414;2023-08-31T12:55:48;2.45;;;0.82;;
76656;SDS011;65576;47.714;9.414;2023-08-31T12:58:14;1.65;;;0.90;;
76656;SDS011;65576;47.714;9.414;2023-08-31T13:00:40;1.73;;;0.88;;
76656;SDS011;65576;47.714;9.414;2023-08-31T13:03:06;1.23;;;1.08;;
76656;SDS011;65576;47.714;9.414;2023-08-31T13:05:32;1.00;;;0.90;;
76656;SDS011;65576;47.714;9.414;2023-08-31T13:07:57;0.90;;;0.85;;
76656;SDS011;65576;47.714;9.414;2023-08-31T13:10:22;1.63;;;1.27;;
76656;SDS011;65576;47.714;9.414;2023-08-31T13:12:48;2.42;;;0.98;;
76656;SDS011;65576;47.714;9.414;2023-08-31T13:15:14;5.55;;;1.40;;
76656;SDS011;65576;47.714;9.414;2023-08-31T13:17:39;1.13;;;0.90;;
76656;SDS011;65576;47.714;9.414;2023-08-31T13:20:05;1.67;;;1.15;;
76656;SDS011;65576;47.714;9.414;2023-08-31T13:22:31;2.17;;;1.25;;
76656;SDS011;65576;47.714;9.414;2023-08-31T13:24:56;1.27;;;0.98;;
76656;SDS011;65576;47.714;9.414;2023-08-31T13:27:22;4.07;;;1.20;;
76656;SDS011;65576;47.714;9.414;2023-08-31T13:29:47;1.90;;;1.02;;
76656;SDS011;65576;47.714;9.414;2023-08-31T13:32:12;2.13;;;1.05;;
76656;SDS011;65576;47.714;9.414;2023-08-31T13:34:38;5.18;;;1.20;;
76656;SDS011;65576;47.714;9.414;2023-08-31T13:37:03;4.03;;;1.15;;
76656;SDS011;65576;47.714;9.414;2023-08-31T13:39:29;2.88;;;0.98;;
76656;SDS011;65576;47.714;9.414;2023-08-31T13:41:55;1.45;;;1.10;;
76656;SDS011;65576;47.714;9.414;2023-08-31T13:44:20;3.13;;;1.15;;
76656;SDS011;65576;47.714;9.414;2023-08-31T13:46:47;4.93;;;1.55;;
76656;SDS011;65576;47.714;9.414;2023-08-31T13:49:13;2.50;;;0.75;;
76656;SDS011;65576;47.714;9.414;2023-08-31T13:51:38;4.20;;;0.98;;
76656;SDS011;65576;47.714;9.414;2023-08-31T13:54:04;1.38;;;1.00;;
76656;SDS011;65576;47.714;9.414;2023-08-31T13:56:29;2.42;;;1.23;;
76656;SDS011;65576;47.714;9.414;2023-08-31T13:58:55;4.53;;;1.48;;
76656;SDS011;65576;47.714;9.414;2023-08-31T14:01:20;4.35;;;1.35;;
76656;SDS011;65576;47.714;9.414;2023-08-31T14:03:46;1.23;;;1.00;;
76656;SDS011;65576;47.714;9.414;2023-08-31T14:06:11;2.17;;;1.10;;
76656;SDS011;65576;47.714;9.414;2023-08-31T14:08:36;4.20;;;1.23;;
76656;SDS011;65576;47.714;9.414;2023-08-31T14:11:02;3.30;;;1.20;;
76656;SDS011;65576;47.714;9.414;2023-08-31T14:13:27;1.00;;;0.90;;
76656;SDS011;65576;47.714;9.414;2023-08-31T14:15:52;1.70;;;1.02;;
76656;SDS011;65576;47.714;9.414;2023-08-31T14:18:18;2.35;;;1.20;;
76656;SDS011;65576;47.714;9.414;2023-08-31T14:20:44;1.95;;;0.80;;
76656;SDS011;65576;47.714;9.414;2023-08-31T14:23:09;1.33;;;1.10;;
76656;SDS011;65576;47.714;9.414;2023-08-31T14:25:37;1.10;;;1.00;;
76656;SDS011;65576;47.714;9.414;2023-08-31T14:28:03;4.20;;;1.00;;
76656;SDS011;65576;47.714;9.414;2023-08-31T14:30:29;2.50;;;1.17;;
76656;SDS011;65576;47.714;9.414;2023-08-31T14:32:54;1.05;;;0.80;;
76656;SDS011;65576;47.714;9.414;2023-08-31T14:35:19;2.17;;;1.40;;
76656;SDS011;65576;47.714;9.414;2023-08-31T14:37:45;4.25;;;1.50;;
76656;SDS011;65576;47.714;9.414;2023-08-31T14:40:11;3.90;;;1.30;;
76656;SDS011;65576;47.714;9.414;2023-08-31T14:42:36;3.88;;;1.13;;
76656;SDS011;65576;47.714;9.414;2023-08-31T14:45:01;1.27;;;1.10;;
76656;SDS011;65576;47.714;9.414;2023-08-31T14:47:27;0.82;;;0.70;;
76656;SDS011;65576;47.714;9.414;2023-08-31T14:49:54;3.78;;;1.20;;
76656;SDS011;65576;47.714;9.414;2023-08-31T14:52:20;5.90;;;1.38;;
76656;SDS011;65576;47.714;9.414;2023-08-31T14:54:45;1.13;;;1.02;;
76656;SDS011;65576;47.714;9.414;2023-08-31T14:57:11;3.20;;;1.50;;
76656;SDS011;65576;47.714;9.414;2023-08-31T14:59:36;1.55;;;1.05;;
76656;SDS011;65576;47.714;9.414;2023-08-31T15:02:01;7.15;;;2.13;;
76656;SDS011;65576;47.714;9.414;2023-08-31T15:04:29;2.97;;;1.50;;
76656;SDS011;65576;47.714;9.414;2023-08-31T15:06:57;0.98;;;0.90;;
76656;SDS011;65576;47.714;9.414;2023-08-31T15:09:23;2.92;;;1.27;;
76656;SDS011;65576;47.714;9.414;2023-08-31T15:11:49;1.27;;;0.98;;